createdAt,value
2019-05-10T00:00:03.769Z,6.58
2019-05-10T00:02:30.373Z,5.30
2019-05-10T00:04:56.946Z,6.20
2019-05-10T00:07:23.548Z,5.30
2019-05-10T00:09:50.113Z,6.08
2019-05-10T00:12:16.711Z,5.05
2019-05-10T00:14:43.280Z,5.50
2019-05-10T00:17:09.885Z,5.15
2019-05-10T00:19:36.474Z,5.58
2019-05-10T00:22:03.086Z,4.75
2019-05-10T00:24:29.665Z,5.67
2019-05-10T00:26:56.268Z,5.08
2019-05-10T00:29:22.845Z,4.47
2019-05-10T00:31:49.434Z,5.45
2019-05-10T00:34:16.011Z,4.58
2019-05-10T00:36:42.620Z,6.05
2019-05-10T00:39:09.198Z,4.78
2019-05-10T00:41:35.793Z,4.53
2019-05-10T00:44:02.365Z,5.00
2019-05-10T00:46:28.959Z,4.95
2019-05-10T00:48:55.543Z,5.35
2019-05-10T00:51:22.158Z,5.08
2019-05-10T00:53:48.740Z,5.25
2019-05-10T00:56:15.340Z,5.65
2019-05-10T00:58:41.916Z,5.80
2019-05-10T01:01:08.546Z,5.33
2019-05-10T01:03:35.112Z,5.65
2019-05-10T01:06:01.743Z,5.40
2019-05-10T01:08:28.371Z,5.47
2019-05-10T01:10:54.956Z,5.00
2019-05-10T01:13:21.562Z,5.70
2019-05-10T01:15:48.179Z,4.58
2019-05-10T01:18:14.773Z,4.70
2019-05-10T01:20:41.342Z,5.17
2019-05-10T01:23:07.961Z,4.53
2019-05-10T01:25:35.912Z,5.28
2019-05-10T01:28:02.756Z,4.45
2019-05-10T01:30:29.385Z,4.70
2019-05-10T01:32:55.982Z,4.12
2019-05-10T01:35:22.623Z,4.03
2019-05-10T01:37:49.239Z,4.35
2019-05-10T01:40:15.816Z,4.00
2019-05-10T01:42:42.433Z,3.65
2019-05-10T01:45:09.018Z,3.72
2019-05-10T01:47:35.618Z,4.12
2019-05-10T01:50:02.193Z,4.10
2019-05-10T01:52:28.806Z,4.10
2019-05-10T01:54:55.376Z,4.25
2019-05-10T01:57:21.978Z,3.58
2019-05-10T01:59:48.591Z,3.85
2019-05-10T02:02:15.205Z,4.50
2019-05-10T02:04:41.804Z,3.35
2019-05-10T02:07:08.415Z,3.50
2019-05-10T02:09:34.984Z,3.55
2019-05-10T02:12:01.596Z,3.15
2019-05-10T02:14:28.163Z,3.55
2019-05-10T02:16:54.783Z,3.72
2019-05-10T02:19:21.359Z,2.98
2019-05-10T02:21:47.992Z,3.02
2019-05-10T02:24:14.547Z,3.15
2019-05-10T02:26:41.154Z,2.77
2019-05-10T02:29:07.764Z,3.10
2019-05-10T02:31:34.411Z,3.47
2019-05-10T02:34:00.970Z,3.47
2019-05-10T02:36:27.589Z,2.70
2019-05-10T02:38:54.191Z,3.42
2019-05-10T02:41:20.816Z,2.85
2019-05-10T02:43:47.433Z,3.02
2019-05-10T02:46:13.996Z,3.08
2019-05-10T02:48:40.585Z,3.80
2019-05-10T02:51:07.156Z,3.27
2019-05-10T02:53:33.784Z,3.17
2019-05-10T02:56:00.359Z,3.52
2019-05-10T02:58:26.957Z,3.33
2019-05-10T03:00:53.530Z,2.85
2019-05-10T03:03:20.128Z,3.02
2019-05-10T03:05:48.552Z,2.70
2019-05-10T03:08:15.052Z,2.83
2019-05-10T03:10:41.638Z,2.62
2019-05-10T03:13:08.232Z,2.83
2019-05-10T03:15:34.817Z,3.12
2019-05-10T03:18:01.418Z,3.15
2019-05-10T03:20:27.976Z,3.58
2019-05-10T03:22:54.660Z,3.50
2019-05-10T03:25:21.400Z,3.00
2019-05-10T03:27:47.997Z,3.35
2019-05-10T03:30:14.576Z,3.77
2019-05-10T03:32:41.187Z,3.12
2019-05-10T03:35:07.867Z,3.52
2019-05-10T03:37:34.606Z,3.60
2019-05-10T03:40:01.189Z,3.70
2019-05-10T03:42:27.791Z,4.37
2019-05-10T03:44:54.388Z,3.58
2019-05-10T03:47:20.984Z,3.77
2019-05-10T03:49:47.643Z,3.80
2019-05-10T03:52:14.249Z,3.55
2019-05-10T03:54:40.823Z,4.20
2019-05-10T03:57:13.820Z,5.03
2019-05-10T03:59:35.737Z,3.87
2019-05-10T04:02:02.319Z,4.62
2019-05-10T04:04:28.898Z,4.15
2019-05-10T04:06:55.479Z,3.98
2019-05-10T04:09:22.085Z,4.92
2019-05-10T04:11:48.654Z,4.12
2019-05-10T04:14:15.277Z,4.22
2019-05-10T04:16:41.944Z,3.85
2019-05-10T04:19:08.523Z,4.05
2019-05-10T04:21:35.122Z,3.92
2019-05-10T04:24:01.792Z,4.62
2019-05-10T04:26:28.365Z,4.03
2019-05-10T04:28:54.984Z,4.00
2019-05-10T04:31:21.559Z,3.62
2019-05-10T04:33:48.215Z,3.72
2019-05-10T04:36:14.783Z,4.33
2019-05-10T04:38:41.385Z,4.15
2019-05-10T04:41:07.960Z,3.70
2019-05-10T04:43:34.549Z,3.77
2019-05-10T04:46:01.129Z,3.85
2019-05-10T04:48:27.805Z,3.70
2019-05-10T04:50:54.377Z,3.83
2019-05-10T04:53:20.985Z,4.33
2019-05-10T04:55:47.563Z,4.08
2019-05-10T04:58:14.157Z,5.10
2019-05-10T05:00:40.741Z,4.45
2019-05-10T05:03:07.355Z,4.28
2019-05-10T05:05:34.062Z,4.37
2019-05-10T05:08:00.700Z,4.03
2019-05-10T05:10:27.283Z,4.45
2019-05-10T05:12:54.156Z,4.47
2019-05-10T05:15:20.734Z,4.92
2019-05-10T05:17:47.327Z,4.75
2019-05-10T05:20:13.908Z,4.70
2019-05-10T05:22:40.484Z,4.22
2019-05-10T05:25:07.099Z,4.72
2019-05-10T05:27:34.010Z,5.67
2019-05-10T05:30:00.608Z,5.37
2019-05-10T05:32:27.181Z,6.22
2019-05-10T05:34:53.776Z,4.83
2019-05-10T05:37:20.355Z,4.72
2019-05-10T05:39:46.975Z,5.70
2019-05-10T05:42:13.638Z,5.08
2019-05-10T05:44:40.314Z,5.67
2019-05-10T05:47:06.886Z,5.30
2019-05-10T05:49:33.474Z,5.53
2019-05-10T05:52:02.327Z,4.85
2019-05-10T05:54:28.966Z,5.05
2019-05-10T05:56:55.542Z,6.00
2019-05-10T05:59:23.809Z,5.15
2019-05-10T06:01:50.458Z,4.37
2019-05-10T06:04:17.070Z,5.08
2019-05-10T06:06:43.639Z,4.70
2019-05-10T06:09:10.248Z,4.53
2019-05-10T06:11:37.840Z,5.90
2019-05-10T06:14:10.917Z,5.72
2019-05-10T06:16:32.930Z,5.33
2019-05-10T06:18:59.529Z,4.35
2019-05-10T06:21:26.808Z,4.12
2019-05-10T06:23:53.601Z,4.37
2019-05-10T06:26:26.503Z,4.12
2019-05-10T06:28:59.636Z,4.80
2019-05-10T06:31:16.807Z,4.12
2019-05-10T06:33:44.901Z,3.90
2019-05-10T06:36:11.678Z,3.47
2019-05-10T06:38:38.293Z,4.00
2019-05-10T06:41:09.990Z,3.83
2019-05-10T06:43:33.194Z,4.30
2019-05-10T06:45:59.782Z,3.50
2019-05-10T06:48:29.518Z,4.42
2019-05-10T06:50:54.693Z,3.62
2019-05-10T06:53:23.245Z,4.60
2019-05-10T06:55:49.602Z,4.17
2019-05-10T06:58:16.178Z,3.65
2019-05-10T07:00:44.695Z,3.35
2019-05-10T07:03:11.103Z,4.67
2019-05-10T07:05:37.705Z,3.70
2019-05-10T07:08:14.005Z,3.20
2019-05-10T07:10:33.787Z,3.15
2019-05-10T07:13:03.756Z,3.67
2019-05-10T07:15:29.179Z,3.37
2019-05-10T07:17:55.760Z,2.95
2019-05-10T07:20:23.722Z,3.22
2019-05-10T07:22:50.678Z,3.45
2019-05-10T07:25:17.286Z,3.17
2019-05-10T07:27:44.239Z,3.58
2019-05-10T07:30:11.065Z,3.52
2019-05-10T07:32:37.656Z,3.20
2019-05-10T07:35:04.339Z,3.92
2019-05-10T07:37:30.902Z,3.08
2019-05-10T07:39:57.532Z,2.87
2019-05-10T07:42:24.111Z,3.08
2019-05-10T07:44:50.721Z,3.47
2019-05-10T07:47:17.297Z,2.98
2019-05-10T07:49:43.914Z,2.80
2019-05-10T07:52:10.481Z,3.12
2019-05-10T07:54:44.611Z,3.00
2019-05-10T07:57:05.389Z,3.30
2019-05-10T07:59:41.999Z,3.45
2019-05-10T08:02:06.140Z,2.83
2019-05-10T08:04:33.376Z,2.50
2019-05-10T08:06:59.569Z,3.22
2019-05-10T08:09:25.298Z,2.83
2019-05-10T08:11:53.890Z,4.10
2019-05-10T08:14:20.178Z,3.30
2019-05-10T08:16:49.779Z,3.65
2019-05-10T08:19:15.065Z,4.47
2019-05-10T08:21:42.002Z,3.37
2019-05-10T08:24:13.720Z,3.75
2019-05-10T08:26:37.020Z,3.55
2019-05-10T08:29:07.821Z,3.20
2019-05-10T08:31:40.680Z,2.95
2019-05-10T08:34:02.221Z,2.85
2019-05-10T08:36:28.534Z,2.80
2019-05-10T08:39:03.458Z,2.80
2019-05-10T08:41:23.474Z,3.50
2019-05-10T08:43:52.390Z,3.60
2019-05-10T08:46:19.330Z,2.92
2019-05-10T08:48:50.582Z,3.40
2019-05-10T08:51:14.983Z,3.67
2019-05-10T08:53:42.291Z,2.95
2019-05-10T08:56:13.672Z,3.52
2019-05-10T08:58:37.497Z,3.30
2019-05-10T09:01:16.276Z,3.83
2019-05-10T09:03:32.438Z,3.47
2019-05-10T09:06:05.311Z,3.47
2019-05-10T09:08:31.353Z,4.50
2019-05-10T09:10:55.672Z,3.40
2019-05-10T09:13:22.896Z,3.25
2019-05-10T09:15:54.330Z,3.47
2019-05-10T09:18:18.047Z,4.50
2019-05-10T09:20:44.635Z,4.35
2019-05-10T09:23:17.886Z,4.95
2019-05-10T09:25:39.561Z,6.15
2019-05-10T09:28:11.674Z,6.10
2019-05-10T09:30:35.606Z,5.12
2019-05-10T09:33:08.768Z,3.52
2019-05-10T09:35:32.852Z,4.62
2019-05-10T09:37:59.046Z,4.47
2019-05-10T09:40:26.778Z,4.45
2019-05-10T09:42:53.350Z,4.20
2019-05-10T09:45:24.106Z,5.03
2019-05-10T09:47:48.271Z,4.65
2019-05-10T09:50:14.854Z,5.33
2019-05-10T09:52:41.702Z,4.15
2019-05-10T09:55:12.410Z,3.55
2019-05-10T09:57:38.054Z,3.30
2019-05-10T10:00:07.235Z,3.75
2019-05-10T10:02:33.985Z,3.90
2019-05-10T10:05:00.675Z,3.80
2019-05-10T10:07:30.692Z,3.30
2019-05-10T10:09:57.038Z,2.80
2019-05-10T10:12:23.769Z,3.70
2019-05-10T10:14:50.336Z,3.72
2019-05-10T10:17:18.347Z,5.12
2019-05-10T10:19:47.811Z,4.53
2019-05-10T10:22:13.569Z,3.87
2019-05-10T10:24:41.097Z,4.03
2019-05-10T10:27:07.928Z,4.72
2019-05-10T10:29:38.269Z,2.65
2019-05-10T10:32:02.845Z,2.70
2019-05-10T10:34:32.693Z,2.65
2019-05-10T10:36:58.134Z,3.08
2019-05-10T10:39:24.806Z,2.67
2019-05-10T10:41:52.216Z,2.27
2019-05-10T10:44:18.973Z,2.20
2019-05-10T10:46:47.775Z,2.37
2019-05-10T10:49:14.611Z,2.00
2019-05-10T10:51:41.372Z,2.27
2019-05-10T10:54:07.950Z,1.85
2019-05-10T10:56:34.564Z,2.37
2019-05-10T10:59:01.144Z,2.35
2019-05-10T11:01:33.182Z,2.55
2019-05-10T11:03:56.091Z,1.90
2019-05-10T11:06:22.883Z,2.55
2019-05-10T11:08:51.707Z,2.10
2019-05-10T11:11:17.808Z,2.47
2019-05-10T11:13:46.286Z,2.55
2019-05-10T11:16:15.670Z,4.53
2019-05-10T11:18:41.828Z,3.22
2019-05-10T11:21:11.078Z,2.92
2019-05-10T11:23:39.050Z,2.62
2019-05-10T11:26:05.321Z,2.62
2019-05-10T11:28:38.563Z,2.22
2019-05-10T11:31:01.076Z,2.30
2019-05-10T11:33:30.831Z,2.65
2019-05-10T11:35:57.671Z,2.55
2019-05-10T11:38:24.402Z,2.42
2019-05-10T11:40:50.974Z,2.27
2019-05-10T11:43:23.897Z,2.15
2019-05-10T11:45:45.899Z,2.58
2019-05-10T11:48:12.530Z,2.50
2019-05-10T11:50:41.125Z,3.50
2019-05-10T11:53:13.299Z,2.30
2019-05-10T11:59:04.539Z,2.17
2019-05-10T12:00:34.323Z,2.12
2019-05-10T12:03:07.686Z,2.25
2019-05-10T12:05:31.793Z,2.37
2019-05-10T12:07:57.549Z,2.50
2019-05-10T12:10:25.564Z,2.70
2019-05-10T12:13:06.194Z,3.10
2019-05-10T12:15:25.293Z,2.90
2019-05-10T12:17:57.774Z,3.58
2019-05-10T12:20:17.571Z,2.22
2019-05-10T12:22:47.366Z,3.27
2019-05-10T12:25:35.933Z,3.30
2019-05-10T12:25:59.517Z,2.55
2019-05-10T12:27:47.844Z,2.87
2019-05-10T12:30:11.478Z,4.65
2019-05-10T12:32:53.666Z,3.05
2019-05-10T12:35:05.734Z,2.72
2019-05-10T12:37:32.332Z,4.00
2019-05-10T12:40:08.535Z,3.75
2019-05-10T12:42:27.259Z,3.35
2019-05-10T12:44:55.922Z,2.15
2019-05-10T12:47:22.154Z,2.70
2019-05-10T12:49:53.895Z,2.85
2019-05-10T12:52:17.148Z,3.05
2019-05-10T12:54:43.713Z,2.55
2019-05-10T12:57:10.347Z,2.40
2019-05-10T12:59:36.909Z,2.70
2019-05-10T13:02:04.622Z,2.33
2019-05-10T13:04:40.070Z,2.70
2019-05-10T13:07:00.151Z,2.40
2019-05-10T13:09:38.105Z,2.27
2019-05-10T13:12:03.134Z,2.40
2019-05-10T13:14:23.370Z,1.77
2019-05-10T13:16:49.945Z,1.62
2019-05-10T13:19:19.966Z,1.50
2019-05-10T13:21:44.848Z,1.67
2019-05-10T13:24:11.516Z,1.77
2019-05-10T13:26:38.101Z,1.02
2019-05-10T13:29:08.164Z,2.22
2019-05-10T13:31:42.105Z,1.20
2019-05-10T13:34:01.355Z,1.45
2019-05-10T13:36:30.634Z,1.40
2019-05-10T13:38:56.259Z,1.10
2019-05-10T13:41:24.470Z,1.27
2019-05-10T13:43:51.165Z,1.32
2019-05-10T13:46:17.741Z,1.50
2019-05-10T13:48:44.351Z,1.60
2019-05-10T13:51:10.934Z,1.55
2019-05-10T13:53:37.549Z,1.52
2019-05-10T13:56:04.709Z,1.77
2019-05-10T13:58:31.329Z,1.52
2019-05-10T14:00:57.912Z,1.80
2019-05-10T14:03:24.517Z,1.40
2019-05-10T14:05:51.087Z,1.50
2019-05-10T14:08:17.683Z,1.55
2019-05-10T14:10:44.267Z,1.70
2019-05-10T14:13:10.875Z,1.98
2019-05-10T14:15:37.455Z,1.75
2019-05-10T14:18:04.065Z,1.60
2019-05-10T14:20:30.642Z,1.27
2019-05-10T14:22:58.906Z,1.75
2019-05-10T14:25:29.697Z,1.67
2019-05-10T14:27:53.877Z,1.50
2019-05-10T14:30:20.448Z,1.50
2019-05-10T14:32:47.068Z,1.37
2019-05-10T14:35:16.415Z,1.67
2019-05-10T14:37:41.964Z,1.60
2019-05-10T14:40:08.546Z,2.60
2019-05-10T14:42:35.161Z,2.02
2019-05-10T14:45:01.733Z,1.90
2019-05-10T14:47:28.309Z,1.70
2019-05-10T14:49:54.906Z,1.95
2019-05-10T14:52:22.696Z,2.08
2019-05-10T14:54:54.824Z,1.72
2019-05-10T14:57:17.790Z,2.12
2019-05-10T14:59:44.451Z,2.30
2019-05-10T15:02:17.047Z,1.98
2019-05-10T15:04:45.202Z,2.02
2019-05-10T15:07:08.530Z,3.20
2019-05-10T15:09:35.963Z,3.52
2019-05-10T15:12:02.534Z,4.12
2019-05-10T15:14:29.267Z,3.87
2019-05-10T15:16:55.852Z,2.92
2019-05-10T15:19:27.134Z,3.10
2019-05-10T15:21:51.786Z,3.15
2019-05-10T15:24:18.390Z,3.55
2019-05-10T15:26:46.140Z,3.25
2019-05-10T15:29:15.066Z,3.47
2019-05-10T15:31:41.264Z,2.92
2019-05-10T15:34:07.852Z,3.20
2019-05-10T15:36:34.433Z,2.92
2019-05-10T15:39:01.038Z,3.52
2019-05-10T15:41:27.605Z,4.03
2019-05-10T15:43:55.001Z,4.12
2019-05-10T15:46:23.386Z,3.40
2019-05-10T15:48:50.181Z,3.33
2019-05-10T15:51:18.435Z,3.08
2019-05-10T15:53:45.238Z,1.98
2019-05-10T15:56:11.817Z,2.37
2019-05-10T15:58:42.122Z,2.98
2019-05-10T16:01:06.718Z,3.35
2019-05-10T16:03:33.327Z,3.12
2019-05-10T16:06:01.116Z,3.12
2019-05-10T16:08:30.106Z,5.58
2019-05-10T16:10:56.272Z,3.77
2019-05-10T16:13:25.092Z,3.40
2019-05-10T16:15:56.908Z,3.98
2019-05-10T16:18:20.590Z,3.12
2019-05-10T16:20:48.045Z,3.58
2019-05-10T16:23:14.646Z,4.08
2019-05-10T16:25:47.641Z,5.05
2019-05-10T16:28:09.527Z,4.45
2019-05-10T16:30:36.662Z,5.25
2019-05-10T16:33:03.396Z,4.28
2019-05-10T16:35:38.333Z,4.92
2019-05-10T16:37:58.295Z,4.62
2019-05-10T16:40:24.926Z,4.10
2019-05-10T16:42:51.514Z,4.50
2019-05-10T16:45:18.108Z,4.80
2019-05-10T16:47:44.688Z,5.25
2019-05-10T16:50:11.305Z,5.75
2019-05-10T16:52:37.899Z,5.00
2019-05-10T16:55:05.418Z,3.92
2019-05-10T16:57:37.297Z,4.17
2019-05-10T17:00:02.186Z,4.28
2019-05-10T17:02:28.930Z,4.45
2019-05-10T17:04:55.550Z,4.12
2019-05-10T17:07:22.122Z,4.53
2019-05-10T17:09:49.584Z,4.55
2019-05-10T17:12:17.034Z,4.72
2019-05-10T17:14:43.648Z,4.37
2019-05-10T17:17:10.223Z,4.37
2019-05-10T17:19:36.840Z,3.65
2019-05-10T17:22:03.424Z,4.00
2019-05-10T17:24:30.027Z,4.17
2019-05-10T17:26:56.609Z,4.45
2019-05-10T17:29:23.239Z,5.35
2019-05-10T17:31:49.821Z,5.75
2019-05-10T17:34:27.637Z,5.42
2019-05-10T17:36:44.721Z,5.53
2019-05-10T17:39:11.337Z,5.40
2019-05-10T17:41:37.915Z,4.92
2019-05-10T17:44:04.540Z,4.95
2019-05-10T17:46:31.115Z,5.10
2019-05-10T17:48:57.698Z,4.55
2019-05-10T17:51:24.308Z,4.08
2019-05-10T17:53:54.935Z,4.58
2019-05-10T17:56:19.546Z,4.37
2019-05-10T17:58:46.115Z,4.62
2019-05-10T18:01:12.722Z,5.22
2019-05-10T18:03:39.302Z,4.00
2019-05-10T18:06:05.923Z,4.62
2019-05-10T18:08:32.494Z,4.60
2019-05-10T18:11:04.107Z,3.85
2019-05-10T18:13:27.506Z,4.90
2019-05-10T18:15:54.118Z,3.50
2019-05-10T18:18:20.688Z,4.10
2019-05-10T18:20:47.305Z,5.35
2019-05-10T18:23:20.471Z,4.75
2019-05-10T18:25:42.262Z,4.85
2019-05-10T18:28:08.842Z,4.80
2019-05-10T18:30:35.449Z,7.00
2019-05-10T18:33:06.658Z,8.58
2019-05-10T18:35:30.356Z,7.35
2019-05-10T18:37:59.485Z,7.50
2019-05-10T18:40:31.779Z,6.30
2019-05-10T18:42:57.970Z,6.30
2019-05-10T18:45:23.259Z,6.60
2019-05-10T18:47:50.200Z,6.22
2019-05-10T18:50:16.795Z,8.15
2019-05-10T18:52:43.378Z,7.45
2019-05-10T18:55:10.048Z,9.63
2019-05-10T18:57:36.620Z,9.00
2019-05-10T19:00:03.537Z,11.45
2019-05-10T19:02:30.341Z,10.03
2019-05-10T19:04:56.945Z,9.28
2019-05-10T19:07:23.575Z,6.05
2019-05-10T19:09:50.169Z,5.95
2019-05-10T19:12:18.573Z,5.62
2019-05-10T19:14:45.092Z,4.78
2019-05-10T19:17:11.690Z,5.50
2019-05-10T19:19:42.026Z,5.35
2019-05-10T19:22:08.825Z,5.22
2019-05-10T19:24:34.915Z,5.67
2019-05-10T19:27:07.085Z,4.37
2019-05-10T19:29:29.842Z,4.72
2019-05-10T19:31:56.451Z,5.78
2019-05-10T19:34:23.021Z,5.55
2019-05-10T19:36:49.777Z,7.10
2019-05-10T19:39:16.362Z,6.55
2019-05-10T19:41:42.977Z,6.25
2019-05-10T19:44:09.596Z,5.83
2019-05-10T19:46:39.171Z,6.30
2019-05-10T19:49:07.502Z,6.28
2019-05-10T19:51:33.122Z,6.35
2019-05-10T19:53:59.693Z,6.53
2019-05-10T19:56:30.114Z,5.75
2019-05-10T19:58:54.585Z,5.62
2019-05-10T20:01:21.198Z,4.50
2019-05-10T20:03:47.771Z,5.53
2019-05-10T20:06:14.412Z,5.53
2019-05-10T20:08:40.987Z,5.47
2019-05-10T20:11:07.597Z,6.85
2019-05-10T20:13:34.183Z,6.62
2019-05-10T20:16:01.551Z,8.45
2019-05-10T20:18:28.353Z,9.35
2019-05-10T20:20:54.977Z,10.08
2019-05-10T20:23:21.549Z,9.98
2019-05-10T20:25:48.166Z,8.60
2019-05-10T20:28:14.751Z,8.93
2019-05-10T20:30:41.441Z,9.30
2019-05-10T20:33:08.079Z,12.55
2019-05-10T20:35:34.722Z,10.93
2019-05-10T20:38:02.655Z,17.50
2019-05-10T20:40:29.531Z,15.60
2019-05-10T20:42:56.112Z,14.63
2019-05-10T20:45:22.790Z,19.23
2019-05-10T20:47:49.379Z,13.90
2019-05-10T20:50:16.063Z,11.03
2019-05-10T20:52:42.658Z,11.05
2019-05-10T20:55:09.242Z,10.18
2019-05-10T20:57:35.859Z,10.95
2019-05-10T21:00:02.445Z,10.45
2019-05-10T21:02:29.167Z,14.33
2019-05-10T21:04:57.361Z,13.58
2019-05-10T21:07:23.961Z,14.07
2019-05-10T21:09:50.539Z,11.55
2019-05-10T21:12:17.133Z,11.68
2019-05-10T21:14:43.717Z,9.73
2019-05-10T21:17:10.327Z,9.23
2019-05-10T21:19:36.915Z,9.03
2019-05-10T21:22:03.530Z,8.93
2019-05-10T21:24:32.204Z,7.62
2019-05-10T21:26:58.852Z,6.72
2019-05-10T21:29:25.437Z,7.97
2019-05-10T21:31:52.057Z,7.95
2019-05-10T21:34:18.653Z,6.85
2019-05-10T21:36:45.237Z,7.10
2019-05-10T21:39:11.816Z,6.78
2019-05-10T21:41:38.435Z,7.65
2019-05-10T21:44:05.011Z,7.22
2019-05-10T21:46:31.619Z,8.45
2019-05-10T21:48:58.200Z,8.40
2019-05-10T21:51:24.802Z,8.78
2019-05-10T21:53:51.389Z,9.05
2019-05-10T21:56:18.015Z,9.35
2019-05-10T21:58:44.587Z,8.98
2019-05-10T22:01:11.196Z,8.05
2019-05-10T22:03:37.769Z,6.70
2019-05-10T22:06:04.363Z,8.73
2019-05-10T22:08:30.935Z,8.75
2019-05-10T22:10:57.600Z,7.37
2019-05-10T22:13:24.294Z,7.08
2019-05-10T22:15:50.906Z,7.75
2019-05-10T22:18:17.515Z,7.90
2019-05-10T22:20:44.138Z,6.55
2019-05-10T22:23:10.770Z,6.55
2019-05-10T22:25:37.348Z,6.42
2019-05-10T22:28:03.959Z,6.12
2019-05-10T22:30:30.550Z,7.22
2019-05-10T22:32:57.167Z,6.70
2019-05-10T22:35:23.739Z,5.87
2019-05-10T22:37:50.349Z,6.72
2019-05-10T22:40:16.946Z,6.78
2019-05-10T22:42:43.663Z,6.10
2019-05-10T22:45:10.371Z,6.67
2019-05-10T22:47:36.977Z,6.50
2019-05-10T22:50:03.544Z,7.15
2019-05-10T22:52:30.197Z,6.20
2019-05-10T22:55:00.145Z,6.37
2019-05-10T22:57:25.138Z,6.97
2019-05-10T22:59:51.707Z,6.90
2019-05-10T23:02:18.313Z,6.95
2019-05-10T23:04:44.899Z,5.92
2019-05-10T23:07:11.506Z,7.22
2019-05-10T23:09:38.091Z,6.55
2019-05-10T23:12:04.694Z,7.03
2019-05-10T23:14:31.275Z,7.00
2019-05-10T23:16:57.892Z,6.83
2019-05-10T23:19:24.463Z,6.87
2019-05-10T23:21:51.079Z,7.00
2019-05-10T23:24:17.654Z,6.40
2019-05-10T23:26:44.263Z,6.33
2019-05-10T23:29:10.857Z,6.70
2019-05-10T23:31:37.467Z,6.55
2019-05-10T23:34:04.051Z,7.70
2019-05-10T23:36:30.664Z,7.25
2019-05-10T23:38:57.252Z,8.23
2019-05-10T23:41:23.869Z,7.65
2019-05-10T23:43:50.449Z,8.40
2019-05-10T23:46:17.027Z,8.58
2019-05-10T23:48:43.643Z,7.12
2019-05-10T23:51:10.216Z,9.30
2019-05-10T23:53:36.829Z,7.22
2019-05-10T23:56:03.419Z,8.28
2019-05-10T23:58:30.002Z,9.58
